Terminal Aerodrome Forecast
Issued by NWS

Home | Current Version | Previous Version | Text Only | Print | Product List | Glossary On
Versions: 1 2 3 4 5 6 7 8 9 10 11 12 13 14 15 16
000
FTUS42 KTBW 050309 AAA
TAFRSW
TAF AMD
KRSW 050309Z 0503/0524 04004KT 3SM FU FEW050 BKN250
     FM050400 05003KT P6SM FEW050 SCT250
     FM051500 17006KT P6SM FEW030 SCT250
     FM051700 VRB06KT P6SM VCTS SCT045CB BKN250=

USA.gov is the U.S. government's official web portal to all federal, state and local government web resources and services.